Time;durP1;ratioP1;P1;durP2;ratioP2;P2;SDS_P1;SDS_P2;PMS_P1;PMS_P2;Temp;Humidity;BMP_temperature;BMP_pressure;BME280_temperature;BME280_humidity;BME280_pressure;Samples;Min_cycle;Max_cycle;Signal;HPM_P1;HPM_P2
2021/12/06 00:00:58;;;;;;;5.80;5.10;;;15.70;46.20;;;;;;5116656;28;20008;-60
2021/12/06 00:03:47;;;;;;;8.35;5.30;;;15.80;46.30;;;;;;5116283;28;20462;-60
2021/12/06 00:06:14;;;;;;;9.32;5.55;;;15.70;46.30;;;;;;5115865;28;20019;-60
2021/12/06 00:08:40;;;;;;;5.38;4.45;;;15.80;46.20;;;;;;5116207;28;20067;-60
2021/12/06 00:11:09;;;;;;;6.20;5.00;;;15.80;46.00;;;;;;5116415;28;20105;-59
2021/12/06 00:13:36;;;;;;;5.43;4.93;;;15.80;46.00;;;;;;5116462;28;20044;-60
2021/12/06 00:16:06;;;;;;;8.95;4.85;;;15.80;46.00;;;;;;5116619;28;20025;-60
2021/12/06 00:18:32;;;;;;;6.80;5.23;;;15.90;45.80;;;;;;5115985;28;20035;-60
2021/12/06 00:20:58;;;;;;;7.18;5.35;;;15.90;45.90;;;;;;5115962;28;20281;-60
2021/12/06 00:23:24;;;;;;;5.68;4.70;;;15.80;45.80;;;;;;5116176;28;20020;-60
2021/12/06 00:25:50;;;;;;;5.40;4.90;;;15.90;46.00;;;;;;5116016;28;20381;-60
2021/12/06 00:28:16;;;;;;;5.55;5.05;;;15.80;45.90;;;;;;5116109;28;20365;-60
2021/12/06 00:30:42;;;;;;;5.47;4.97;;;15.80;46.00;;;;;;5116094;28;20031;-60
2021/12/06 00:33:08;;;;;;;7.30;5.05;;;15.80;46.10;;;;;;5115787;28;20038;-60
2021/12/06 00:35:35;;;;;;;6.18;5.18;;;15.80;46.00;;;;;;5115787;28;20011;-60
2021/12/06 00:38:01;;;;;;;6.63;5.38;;;15.90;46.00;;;;;;5116017;28;20461;-60
2021/12/06 00:40:34;;;;;;;9.23;5.13;;;15.90;46.00;;;;;;5116020;28;20016;-60
2021/12/06 00:43:00;;;;;;;8.88;5.60;;;15.80;46.00;;;;;;5116050;28;20023;-60
2021/12/06 00:45:26;;;;;;;6.13;5.07;;;15.80;46.10;;;;;;5116310;28;20019;-59
2021/12/06 00:47:52;;;;;;;8.57;5.60;;;15.80;46.00;;;;;;5116633;28;20020;-59
2021/12/06 00:50:19;;;;;;;6.18;5.25;;;15.90;46.00;;;;;;5116181;28;20020;-59
2021/12/06 00:52:45;;;;;;;6.25;5.30;;;15.90;46.00;;;;;;5116394;28;20023;-60
2021/12/06 00:55:10;;;;;;;6.47;5.20;;;15.80;46.00;;;;;;5115939;28;20408;-60
2021/12/06 00:57:37;;;;;;;7.63;5.97;;;15.80;46.00;;;;;;5116030;28;20016;-60
2021/12/06 01:00:08;;;;;;;8.55;5.65;;;15.90;45.90;;;;;;5098299;28;20039;-60
2021/12/06 01:02:34;;;;;;;7.68;6.07;;;15.90;45.90;;;;;;5116327;28;20504;-60
2021/12/06 01:05:00;;;;;;;9.32;5.45;;;15.90;45.90;;;;;;5096976;28;20102;-60
2021/12/06 01:07:26;;;;;;;8.00;6.07;;;15.90;46.00;;;;;;5093825;28;20070;-60
2021/12/06 01:09:52;;;;;;;7.88;5.43;;;15.90;46.00;;;;;;5095133;28;20069;-60
2021/12/06 01:12:18;;;;;;;7.07;5.57;;;15.90;46.00;;;;;;5095330;28;20025;-60
2021/12/06 01:14:44;;;;;;;7.47;5.68;;;15.90;46.00;;;;;;5095206;28;20016;-60
2021/12/06 01:17:09;;;;;;;7.55;6.40;;;15.80;46.10;;;;;;5094421;28;20347;-60
2021/12/06 01:19:37;;;;;;;7.20;6.28;;;15.90;46.10;;;;;;5095841;28;20043;-60
2021/12/06 01:22:17;;;;;;;6.85;5.90;;;15.90;46.00;;;;;;5093851;28;20034;-60
2021/12/06 01:24:51;;;;;;;8.90;5.95;;;15.90;45.90;;;;;;5094236;28;20032;-60
2021/12/06 01:40:46;;;;;;;6.60;5.60;;;15.90;45.90;;;;;;5032466;28;20032;-60
2021/12/06 01:43:11;;;;;;;7.80;6.93;;;15.90;45.80;;;;;;5032132;28;20072;-60
2021/12/06 01:45:38;;;;;;;10.02;6.15;;;16.00;45.80;;;;;;5032072;28;20025;-60
2021/12/06 01:48:05;;;;;;;7.20;6.10;;;16.00;45.70;;;;;;5031819;28;20105;-60
2021/12/06 01:50:31;;;;;;;8.35;6.60;;;16.00;45.80;;;;;;5032129;28;20042;-60
2021/12/06 01:52:59;;;;;;;7.07;6.03;;;16.00;45.80;;;;;;5033161;28;20072;-60
2021/12/06 01:55:28;;;;;;;7.35;6.03;;;16.00;45.80;;;;;;5033530;28;20030;-60
2021/12/06 01:57:55;;;;;;;7.30;6.38;;;16.00;45.80;;;;;;5032673;28;20123;-60
2021/12/06 02:00:39;;;;;;;8.15;6.53;;;16.00;45.70;;;;;;5032845;28;20089;-60
2021/12/06 02:03:05;;;;;;;8.38;6.43;;;16.00;45.80;;;;;;5032604;28;20021;-60
2021/12/06 02:05:31;;;;;;;8.30;6.47;;;16.00;45.70;;;;;;5032086;28;20510;-60
2021/12/06 02:07:58;;;;;;;7.45;6.18;;;16.00;45.70;;;;;;5042780;28;20048;-61
2021/12/06 02:10:24;;;;;;;8.13;6.20;;;16.00;45.70;;;;;;5094069;28;20051;-60
2021/12/06 02:12:52;;;;;;;6.65;5.80;;;16.00;45.80;;;;;;5094038;28;20048;-60
2021/12/06 02:18:05;;;;;;;7.82;6.25;;;16.00;45.70;;;;;;5093770;28;20032;-60
2021/12/06 02:20:36;;;;;;;6.43;5.75;;;16.00;45.70;;;;;;5094382;28;20008;-60
2021/12/06 02:23:01;;;;;;;6.75;5.65;;;16.00;45.60;;;;;;5076568;28;20021;-60
2021/12/06 02:25:31;;;;;;;6.45;5.65;;;16.10;45.60;;;;;;5093749;28;20722;-60
2021/12/06 02:27:57;;;;;;;7.45;6.05;;;16.00;45.70;;;;;;5093774;28;20027;-60
2021/12/06 02:30:24;;;;;;;7.72;6.60;;;16.00;45.60;;;;;;5092483;28;20028;-60
2021/12/06 02:32:50;;;;;;;6.57;5.78;;;16.00;45.60;;;;;;5093257;28;20463;-60
2021/12/06 02:35:18;;;;;;;7.88;5.68;;;16.10;45.50;;;;;;5093608;28;20028;-60
2021/12/06 02:37:44;;;;;;;7.88;6.28;;;16.00;45.40;;;;;;5093612;28;20016;-60
2021/12/06 02:40:22;;;;;;;7.22;5.90;;;16.10;45.40;;;;;;5092164;28;20506;-60
2021/12/06 02:42:49;;;;;;;6.90;5.82;;;16.00;45.30;;;;;;5093256;28;20020;-60
2021/12/06 02:45:19;;;;;;;7.30;6.30;;;16.00;45.40;;;;;;5093068;28;20478;-60
2021/12/06 02:47:52;;;;;;;6.65;5.95;;;16.00;45.40;;;;;;5093364;28;20035;-61
2021/12/06 02:50:18;;;;;;;8.65;6.13;;;16.00;45.40;;;;;;5093274;28;20087;-60
2021/12/06 02:52:44;;;;;;;7.15;6.03;;;16.10;45.40;;;;;;5093238;28;20496;-60
2021/12/06 02:58:20;;;;;;;6.38;5.78;;;16.00;45.30;;;;;;5052378;28;20493;-59
2021/12/06 03:00:51;;;;;;;6.50;5.90;;;16.00;45.40;;;;;;5052336;28;20022;-57
2021/12/06 03:03:37;;;;;;;6.13;5.50;;;16.00;45.50;;;;;;5052226;28;20394;-60
2021/12/06 03:06:03;;;;;;;6.22;5.63;;;16.00;45.40;;;;;;5052354;28;20487;-58
2021/12/06 03:08:59;;;;;;;7.70;5.90;;;16.00;45.40;;;;;;5036133;28;20037;-59
2021/12/06 03:11:36;;;;;;;7.82;5.97;;;16.10;45.40;;;;;;5052634;28;20025;-59
2021/12/06 03:14:03;;;;;;;7.55;6.53;;;16.00;45.30;;;;;;5052993;28;20025;-59
2021/12/06 03:16:29;;;;;;;7.07;5.85;;;16.10;45.30;;;;;;5035863;28;20025;-60
2021/12/06 03:18:55;;;;;;;7.65;6.00;;;16.10;45.10;;;;;;5051608;28;20108;-60
2021/12/06 03:21:21;;;;;;;7.88;5.45;;;16.10;45.10;;;;;;5051575;28;20104;-59
2021/12/06 03:23:48;;;;;;;6.25;5.65;;;16.10;45.10;;;;;;5051506;28;20079;-60
2021/12/06 03:26:14;;;;;;;6.10;5.45;;;16.10;45.10;;;;;;5050721;28;20056;-60
2021/12/06 03:28:42;;;;;;;6.82;5.78;;;16.10;45.10;;;;;;5052555;28;20049;-58
2021/12/06 03:31:08;;;;;;;7.10;5.93;;;16.10;45.10;;;;;;5054333;28;20059;-60
2021/12/06 03:33:37;;;;;;;7.63;5.78;;;16.10;45.20;;;;;;5061361;28;20024;-60
2021/12/06 03:36:04;;;;;;;9.80;5.72;;;16.10;45.10;;;;;;5096860;28;20048;-59
2021/12/06 03:38:30;;;;;;;6.78;5.75;;;16.10;45.10;;;;;;5096830;28;20008;-60
2021/12/06 03:40:57;;;;;;;6.57;5.53;;;16.00;45.10;;;;;;5095613;28;20023;-60
2021/12/06 03:43:23;;;;;;;6.95;5.40;;;16.00;45.20;;;;;;5097110;28;20020;-60
2021/12/06 03:45:49;;;;;;;6.75;6.05;;;16.10;45.10;;;;;;5097551;28;20023;-60
2021/12/06 03:48:15;;;;;;;7.25;5.85;;;16.10;45.00;;;;;;5096983;28;20015;-60
2021/12/06 03:50:42;;;;;;;6.82;5.45;;;16.10;45.00;;;;;;5097057;28;20013;-60
2021/12/06 03:53:08;;;;;;;6.28;5.68;;;16.10;44.80;;;;;;5096988;28;20036;-59
2021/12/06 03:55:34;;;;;;;8.30;5.68;;;16.20;44.80;;;;;;5097871;28;20024;-60
2021/12/06 03:58:00;;;;;;;6.32;5.35;;;16.20;44.80;;;;;;5097352;28;20012;-60
2021/12/06 04:00:26;;;;;;;7.68;5.43;;;16.10;44.80;;;;;;5096776;28;20074;-60
2021/12/06 04:02:52;;;;;;;6.20;5.35;;;16.10;44.80;;;;;;5096583;28;20020;-60
2021/12/06 04:05:18;;;;;;;6.63;5.97;;;16.10;44.90;;;;;;5096158;28;20027;-60
2021/12/06 04:07:45;;;;;;;7.68;5.70;;;16.10;44.70;;;;;;5094728;28;20040;-60
2021/12/06 04:10:10;;;;;;;6.50;5.50;;;16.10;44.60;;;;;;5094583;28;20009;-60
2021/12/06 04:12:37;;;;;;;7.60;5.78;;;16.20;44.60;;;;;;5096088;28;20103;-60
2021/12/06 04:15:10;;;;;;;10.90;5.53;;;16.20;44.60;;;;;;5096074;28;20059;-60
2021/12/06 04:17:36;;;;;;;7.75;5.70;;;16.10;44.60;;;;;;5095854;28;20019;-60
2021/12/06 04:20:06;;;;;;;6.40;5.80;;;16.20;44.60;;;;;;5095788;28;20016;-60
2021/12/06 04:22:32;;;;;;;5.95;4.95;;;16.20;44.40;;;;;;5096032;28;20016;-60
2021/12/06 04:25:01;;;;;;;5.78;5.03;;;16.20;44.30;;;;;;5095559;28;20470;-60
2021/12/06 04:27:27;;;;;;;8.35;5.43;;;16.20;44.20;;;;;;5095876;28;20069;-60
2021/12/06 04:29:53;;;;;;;5.90;4.78;;;16.30;44.10;;;;;;5094595;28;20020;-60
2021/12/06 04:32:19;;;;;;;6.90;5.35;;;16.40;43.80;;;;;;5095657;28;20020;-60
2021/12/06 04:34:45;;;;;;;7.40;5.57;;;16.40;43.50;;;;;;5094359;28;20027;-60
2021/12/06 04:37:11;;;;;;;6.40;5.22;;;16.50;43.50;;;;;;5094539;28;20016;-59
2021/12/06 04:39:38;;;;;;;5.00;4.53;;;16.50;43.50;;;;;;5095439;28;20089;-60
2021/12/06 04:42:04;;;;;;;6.10;5.50;;;16.50;43.40;;;;;;5096880;28;20031;-60
2021/12/06 04:44:30;;;;;;;5.97;4.97;;;16.50;43.40;;;;;;5096779;28;20016;-60
2021/12/06 04:46:59;;;;;;;7.13;5.32;;;16.50;43.10;;;;;;5094616;28;20078;-60
2021/12/06 04:49:28;;;;;;;5.57;4.82;;;16.60;43.00;;;;;;5095524;28;20095;-60
2021/12/06 04:51:56;;;;;;;7.05;5.32;;;16.60;42.90;;;;;;5095668;28;20020;-60
2021/12/06 04:54:24;;;;;;;6.18;4.95;;;16.70;42.80;;;;;;5096135;28;20008;-60
2021/12/06 04:57:06;;;;;;;6.20;5.28;;;16.80;42.70;;;;;;5095989;28;20035;-60
2021/12/06 04:59:40;;;;;;;5.30;4.75;;;16.80;42.60;;;;;;5095734;28;20013;-60
2021/12/06 05:02:09;;;;;;;6.97;5.13;;;16.80;42.50;;;;;;5095020;28;20027;-60
2021/12/06 05:04:36;;;;;;;6.75;5.00;;;16.90;42.50;;;;;;5094835;28;20024;-60
2021/12/06 05:07:09;;;;;;;6.50;5.03;;;16.90;42.30;;;;;;5097111;28;20040;-60
2021/12/06 05:09:37;;;;;;;8.48;5.65;;;17.00;42.30;;;;;;5115431;28;20039;-60
2021/12/06 05:12:04;;;;;;;6.25;5.25;;;17.00;42.30;;;;;;5097420;28;20040;-60
2021/12/06 05:14:31;;;;;;;7.15;5.57;;;17.00;42.20;;;;;;5115491;28;20016;-60
2021/12/06 05:16:56;;;;;;;6.25;5.57;;;17.00;42.10;;;;;;5115218;28;20099;-60
2021/12/06 05:19:23;;;;;;;6.57;5.88;;;17.10;42.00;;;;;;5097500;28;20016;-60
2021/12/06 05:21:50;;;;;;;8.18;5.10;;;17.20;41.90;;;;;;5097043;28;20024;-60
2021/12/06 05:24:17;;;;;;;5.35;4.85;;;17.20;41.80;;;;;;5115375;28;20060;-60
2021/12/06 05:26:45;;;;;;;5.57;4.90;;;17.20;41.70;;;;;;5114763;28;20473;-60
2021/12/06 05:29:13;;;;;;;5.85;4.75;;;17.30;41.60;;;;;;5115283;28;20129;-60
2021/12/06 05:31:41;;;;;;;7.40;5.30;;;17.30;41.50;;;;;;5115076;28;20023;-60
2021/12/06 05:34:15;;;;;;;7.25;5.38;;;17.30;42.00;;;;;;5114794;28;20022;-60
2021/12/06 05:36:41;;;;;;;5.80;5.20;;;17.30;41.20;;;;;;5114579;28;20007;-60
2021/12/06 05:39:07;;;;;;;5.65;5.07;;;17.40;41.20;;;;;;5114677;28;20016;-60
2021/12/06 05:41:34;;;;;;;7.07;5.80;;;17.40;41.10;;;;;;5114601;28;20033;-60
2021/12/06 05:44:01;;;;;;;6.63;5.35;;;17.50;41.00;;;;;;5114712;28;20487;-60
2021/12/06 05:46:26;;;;;;;8.40;6.57;;;17.60;40.80;;;;;;5114764;28;20110;-60
2021/12/06 05:48:52;;;;;;;6.63;5.85;;;17.60;40.70;;;;;;5114573;28;20466;-60
2021/12/06 05:51:18;;;;;;;10.02;7.47;;;17.60;40.70;;;;;;5113752;28;20027;-60
2021/12/06 05:53:45;;;;;;;9.57;7.40;;;17.60;40.50;;;;;;5114679;28;20007;-60
2021/12/06 05:56:11;;;;;;;11.55;8.50;;;17.60;40.40;;;;;;5114308;28;20496;-61
2021/12/06 05:58:38;;;;;;;15.02;8.82;;;17.60;40.40;;;;;;5114312;28;20020;-60
2021/12/06 06:01:08;;;;;;;14.88;9.95;;;17.70;40.40;;;;;;5114301;28;20026;-60
2021/12/06 06:03:34;;;;;;;18.85;10.15;;;17.70;40.30;;;;;;5114472;28;20128;-60
2021/12/06 06:06:02;;;;;;;14.48;10.70;;;17.80;40.10;;;;;;5114393;28;20019;-60
2021/12/06 06:08:28;;;;;;;20.05;11.02;;;17.70;40.00;;;;;;5113997;28;20485;-62
2021/12/06 06:10:53;;;;;;;17.63;10.95;;;17.70;40.40;;;;;;5114113;28;20024;-60
2021/12/06 06:13:19;;;;;;;20.13;11.02;;;17.80;39.80;;;;;;5113877;28;20024;-60
2021/12/06 06:15:45;;;;;;;21.80;10.40;;;17.80;39.50;;;;;;5114349;28;20094;-60
2021/12/06 06:18:11;;;;;;;15.52;9.80;;;17.80;39.30;;;;;;5114135;28;20480;-60
2021/12/06 06:20:39;;;;;;;13.25;9.45;;;17.80;39.20;;;;;;5113913;28;20027;-60
2021/12/06 06:23:05;;;;;;;12.80;9.68;;;17.90;39.20;;;;;;5113782;28;20550;-60
2021/12/06 06:25:31;;;;;;;13.85;8.77;;;17.80;39.10;;;;;;5114304;28;20068;-60
2021/12/06 06:27:57;;;;;;;13.15;8.70;;;17.90;38.80;;;;;;5114135;28;20012;-60
2021/12/06 06:30:23;;;;;;;13.48;8.75;;;17.90;38.60;;;;;;5114073;28;20020;-60
2021/12/06 06:32:49;;;;;;;12.48;8.68;;;18.00;38.50;;;;;;5095408;28;20106;-60
2021/12/06 06:35:15;;;;;;;12.40;8.82;;;17.90;38.40;;;;;;5113934;28;20031;-60
2021/12/06 06:37:41;;;;;;;12.82;8.18;;;17.90;38.40;;;;;;5095355;28;20012;-60
2021/12/06 06:40:07;;;;;;;11.63;7.85;;;18.00;38.30;;;;;;5095586;28;20046;-60
2021/12/06 06:42:34;;;;;;;10.60;8.05;;;18.00;38.10;;;;;;5095500;28;20030;-60
2021/12/06 06:45:00;;;;;;;11.57;8.32;;;18.00;38.00;;;;;;5095480;28;20016;-60
2021/12/06 06:47:26;;;;;;;11.95;8.32;;;18.00;38.00;;;;;;5078665;28;20489;-59
2021/12/06 06:49:52;;;;;;;12.98;8.60;;;18.00;37.90;;;;;;5113892;28;20020;-60
2021/12/06 06:52:22;;;;;;;10.43;8.48;;;18.00;38.10;;;;;;5113644;28;20034;-60
2021/12/06 06:54:48;;;;;;;12.25;8.43;;;18.00;38.00;;;;;;5113119;28;20026;-60
2021/12/06 06:57:17;;;;;;;10.90;8.63;;;18.10;37.90;;;;;;5113216;28;20377;-60
2021/12/06 06:59:45;;;;;;;12.70;8.40;;;18.10;37.90;;;;;;5095753;28;20020;-60
2021/12/06 07:02:11;;;;;;;10.73;8.70;;;18.10;37.80;;;;;;5113154;28;20028;-60
2021/12/06 07:04:37;;;;;;;12.02;8.85;;;18.10;37.80;;;;;;5098539;28;20545;-61
2021/12/06 07:07:04;;;;;;;11.27;8.20;;;18.10;37.80;;;;;;5098881;28;20047;-61
2021/12/06 07:09:30;;;;;;;11.35;8.80;;;18.10;37.70;;;;;;5081678;28;20466;-61
2021/12/06 07:11:55;;;;;;;10.30;9.10;;;18.20;37.70;;;;;;5098049;28;20072;-60
2021/12/06 07:14:21;;;;;;;11.93;9.00;;;18.20;37.60;;;;;;5098210;28;20110;-60
2021/12/06 07:16:48;;;;;;;11.43;9.02;;;18.20;37.70;;;;;;5116736;28;20094;-59
2021/12/06 07:19:14;;;;;;;12.15;8.98;;;18.20;37.70;;;;;;5097598;28;20101;-61
2021/12/06 07:21:40;;;;;;;12.00;9.75;;;18.20;37.70;;;;;;5079788;28;20016;-61
2021/12/06 07:24:06;;;;;;;17.10;9.77;;;18.20;37.70;;;;;;5096866;28;20014;-61
2021/12/06 07:26:32;;;;;;;12.07;9.70;;;18.30;37.60;;;;;;5097222;28;20396;-59
2021/12/06 07:28:59;;;;;;;16.58;10.23;;;18.30;37.90;;;;;;5080547;28;20390;-61
2021/12/06 07:31:24;;;;;;;13.77;9.73;;;18.30;37.30;;;;;;5098218;28;20049;-60
2021/12/06 07:33:51;;;;;;;13.27;9.88;;;18.30;37.30;;;;;;5116457;28;20450;-61
2021/12/06 07:36:18;;;;;;;11.23;9.23;;;18.30;37.20;;;;;;5116105;28;20016;-61
2021/12/06 07:38:44;;;;;;;14.38;9.75;;;18.30;37.10;;;;;;5116023;28;20008;-61
2021/12/06 07:41:12;;;;;;;14.52;9.43;;;18.30;37.10;;;;;;5097373;28;20020;-59
2021/12/06 07:43:38;;;;;;;15.73;10.27;;;18.30;37.00;;;;;;5114883;28;20005;-60
2021/12/06 07:46:04;;;;;;;14.52;10.05;;;18.30;37.00;;;;;;5114651;28;20067;-61
2021/12/06 07:48:31;;;;;;;13.82;9.88;;;18.30;37.00;;;;;;5114660;28;20441;-60
2021/12/06 07:50:59;;;;;;;15.70;10.55;;;18.40;37.00;;;;;;5114542;28;20077;-60
2021/12/06 07:53:27;;;;;;;13.93;9.60;;;18.30;37.00;;;;;;5114357;28;20028;-62
2021/12/06 07:55:56;;;;;;;14.80;10.05;;;18.30;37.00;;;;;;5114507;28;20426;-59
2021/12/06 07:58:21;;;;;;;14.57;9.23;;;18.40;36.90;;;;;;5115026;28;20008;-62
2021/12/06 08:00:50;;;;;;;13.20;9.85;;;18.30;36.90;;;;;;5114507;28;20432;-59
2021/12/06 08:03:20;;;;;;;11.93;9.32;;;18.40;36.90;;;;;;5096141;28;20023;-60
2021/12/06 08:05:46;;;;;;;18.70;10.77;;;18.40;36.80;;;;;;5114212;28;20068;-59
2021/12/06 08:08:22;;;;;;;15.00;9.77;;;18.30;36.70;;;;;;5114312;28;20028;-60
2021/12/06 08:10:50;;;;;;;12.20;9.52;;;18.40;36.70;;;;;;5114396;28;20016;-59
2021/12/06 08:13:17;;;;;;;13.52;9.82;;;18.40;36.60;;;;;;5114275;28;20028;-59
2021/12/06 08:15:43;;;;;;;13.82;9.55;;;18.40;36.60;;;;;;5096063;28;20027;-60
2021/12/06 08:18:11;;;;;;;11.00;9.48;;;18.40;36.60;;;;;;5114711;28;20370;-61
2021/12/06 08:20:38;;;;;;;13.48;9.82;;;18.30;37.20;;;;;;5115178;28;20459;-60
2021/12/06 08:23:04;;;;;;;15.20;9.50;;;18.20;36.70;;;;;;5115278;28;20047;-60
2021/12/06 08:25:30;;;;;;;11.95;9.80;;;18.20;36.80;;;;;;5115076;28;20019;-60
2021/12/06 08:27:56;;;;;;;12.18;10.10;;;18.20;36.70;;;;;;5115257;28;20023;-60
2021/12/06 08:30:23;;;;;;;14.95;10.20;;;17.10;37.20;;;;;;5114868;28;20578;-60
2021/12/06 08:32:53;;;;;;;13.23;9.95;;;15.50;40.70;;;;;;5115056;28;20385;-60
2021/12/06 08:35:19;;;;;;;15.02;10.25;;;15.90;40.50;;;;;;5114772;28;20354;-60
2021/12/06 08:37:45;;;;;;;13.05;9.38;;;16.40;39.60;;;;;;5115273;28;20015;-60
2021/12/06 08:40:13;;;;;;;11.93;9.38;;;16.90;38.80;;;;;;5114695;28;20047;-60
2021/12/06 08:42:39;;;;;;;16.42;8.90;;;17.20;38.10;;;;;;5114549;28;20047;-60
2021/12/06 08:45:06;;;;;;;13.10;8.10;;;17.50;37.50;;;;;;5114179;28;20024;-61
2021/12/06 08:47:32;;;;;;;12.75;9.27;;;17.60;37.10;;;;;;5114214;28;20500;-60
2021/12/06 08:49:58;;;;;;;11.77;8.27;;;17.80;36.90;;;;;;5114643;28;20511;-60
2021/12/06 08:52:23;;;;;;;13.43;8.40;;;17.90;36.80;;;;;;5114091;28;20032;-60
2021/12/06 08:54:49;;;;;;;11.00;8.50;;;18.00;36.60;;;;;;5095829;28;20414;-60
2021/12/06 08:57:15;;;;;;;12.75;7.88;;;18.00;36.50;;;;;;5113843;28;20115;-60
2021/12/06 08:59:40;;;;;;;10.10;8.13;;;18.10;36.50;;;;;;5095760;28;20015;-60
2021/12/06 09:02:06;;;;;;;16.02;8.48;;;18.10;36.40;;;;;;5113938;28;20403;-60
2021/12/06 09:04:34;;;;;;;12.90;8.20;;;18.20;36.40;;;;;;5114673;28;20060;-60
2021/12/06 09:07:00;;;;;;;12.52;8.30;;;18.30;36.40;;;;;;5114365;28;20050;-60
2021/12/06 09:09:27;;;;;;;10.90;8.40;;;18.30;36.30;;;;;;5114092;28;20134;-60
2021/12/06 09:11:54;;;;;;;13.00;8.50;;;18.30;36.30;;;;;;5114081;28;20110;-60
2021/12/06 09:14:20;;;;;;;11.52;8.32;;;18.30;36.30;;;;;;5113854;28;20037;-60
2021/12/06 09:16:46;;;;;;;14.90;8.32;;;18.40;36.40;;;;;;5113401;28;20031;-60
2021/12/06 09:19:12;;;;;;;11.48;8.25;;;18.30;36.40;;;;;;5114371;28;20094;-60
2021/12/06 09:21:38;;;;;;;11.55;8.00;;;18.40;36.50;;;;;;5095549;28;20016;-60
2021/12/06 09:24:08;;;;;;;11.68;8.55;;;18.40;36.50;;;;;;5113882;28;20020;-60
2021/12/06 09:26:34;;;;;;;11.35;8.23;;;18.40;36.40;;;;;;5112989;28;20023;-60
2021/12/06 09:29:03;;;;;;;10.85;8.48;;;18.50;36.40;;;;;;5095509;28;20424;-60
2021/12/06 09:31:28;;;;;;;9.02;7.65;;;18.50;36.30;;;;;;5095663;28;20125;-60
2021/12/06 09:33:54;;;;;;;12.63;7.78;;;18.50;36.40;;;;;;5095730;28;20059;-60
2021/12/06 09:36:21;;;;;;;9.20;7.65;;;18.60;36.40;;;;;;5095520;28;20012;-60
2021/12/06 09:38:47;;;;;;;10.55;7.70;;;18.60;36.40;;;;;;5095169;28;20015;-62
2021/12/06 09:41:19;;;;;;;11.23;7.15;;;18.60;36.30;;;;;;5113511;28;20068;-60
2021/12/06 09:43:45;;;;;;;10.25;7.25;;;18.60;36.20;;;;;;5096400;28;20008;-59
2021/12/06 09:46:11;;;;;;;7.95;7.03;;;18.70;36.20;;;;;;5095382;28;20008;-60
2021/12/06 09:48:37;;;;;;;8.73;7.40;;;18.70;36.30;;;;;;5094858;28;20016;-61
2021/12/06 09:51:06;;;;;;;11.05;7.20;;;18.70;36.20;;;;;;5078031;28;20034;-60
2021/12/06 09:53:33;;;;;;;8.30;6.85;;;18.70;36.20;;;;;;5113229;28;20016;-59
2021/12/06 09:56:02;;;;;;;8.98;7.10;;;18.80;36.20;;;;;;5113683;28;20040;-60
2021/12/06 09:58:30;;;;;;;9.52;7.18;;;18.80;36.20;;;;;;5113385;28;20004;-63
2021/12/06 10:00:59;;;;;;;8.68;7.15;;;18.90;36.20;;;;;;5094833;28;20068;-60
2021/12/06 10:03:28;;;;;;;10.60;6.30;;;18.90;36.10;;;;;;5094875;28;20099;-60
2021/12/06 10:06:01;;;;;;;9.80;6.65;;;18.90;36.10;;;;;;5112674;28;20014;-61
2021/12/06 10:08:27;;;;;;;9.60;6.05;;;18.90;36.30;;;;;;5112607;28;20055;-60
2021/12/06 10:10:53;;;;;;;11.13;7.43;;;18.90;36.30;;;;;;5112375;28;20036;-60
2021/12/06 10:13:19;;;;;;;13.23;7.35;;;18.60;37.10;;;;;;5112274;28;20038;-60
2021/12/06 10:15:48;;;;;;;11.82;8.55;;;17.80;38.40;;;;;;5094547;28;20011;-61
2021/12/06 10:18:18;;;;;;;11.35;7.97;;;17.80;39.40;;;;;;5112602;28;20131;-61
2021/12/06 10:20:44;;;;;;;14.07;8.73;;;17.50;40.20;;;;;;5095313;28;20051;-60
2021/12/06 10:23:11;;;;;;;10.60;8.27;;;17.40;40.40;;;;;;5095276;28;20043;-61
2021/12/06 10:25:39;;;;;;;11.93;9.15;;;17.00;41.00;;;;;;5095023;28;20019;-60
2021/12/06 10:28:06;;;;;;;10.80;8.77;;;15.60;41.50;;;;;;5113080;28;20031;-61
2021/12/06 10:30:35;;;;;;;12.02;7.80;;;15.70;43.60;;;;;;5112673;28;20438;-61
2021/12/06 10:33:09;;;;;;;14.98;8.15;;;16.30;42.70;;;;;;5112782;28;20466;-61
2021/12/06 10:35:35;;;;;;;13.23;7.60;;;16.80;41.90;;;;;;5113095;28;20012;-60
2021/12/06 10:38:00;;;;;;;10.43;8.18;;;17.20;41.20;;;;;;5094060;28;20024;-60
2021/12/06 10:40:31;;;;;;;18.27;8.15;;;17.30;40.80;;;;;;5113245;28;20019;-60
2021/12/06 10:42:58;;;;;;;8.63;7.72;;;17.40;40.40;;;;;;5077582;28;20012;-64
2021/12/06 10:45:33;;;;;;;14.15;8.60;;;17.50;40.50;;;;;;5094045;28;20038;-59
2021/12/06 10:48:13;;;;;;;14.45;7.88;;;17.50;40.40;;;;;;5112105;28;20034;-61
2021/12/06 10:50:44;;;;;;;12.80;7.25;;;17.50;40.30;;;;;;5093945;28;20023;-61
2021/12/06 10:53:11;;;;;;;12.60;7.97;;;17.60;40.10;;;;;;5111731;28;20120;-60
2021/12/06 10:55:37;;;;;;;18.17;8.02;;;17.60;39.80;;;;;;5093856;28;20027;-61
2021/12/06 10:58:05;;;;;;;45.30;9.90;;;17.70;39.60;;;;;;5111761;28;20029;-61
2021/12/06 11:00:56;;;;;;;38.45;8.80;;;17.90;39.70;;;;;;5112254;28;20061;-61
2021/12/06 11:03:24;;;;;;;;;;;18.30;39.20;;;;;;5112979;28;20147;-61
2021/12/06 11:05:54;;;;;;;28.98;7.90;;;18.60;38.70;;;;;;5112538;28;19899;-61
2021/12/06 11:08:19;;;;;;;36.50;7.00;;;19.00;38.20;;;;;;5112416;28;20059;-61
2021/12/06 11:10:47;;;;;;;25.55;6.22;;;19.20;37.80;;;;;;5113170;28;20393;-61
2021/12/06 11:13:21;;;;;;;28.73;6.82;;;19.40;37.50;;;;;;5094858;28;20031;-61
2021/12/06 11:16:20;;;;;;;23.55;5.60;;;19.60;37.10;;;;;;5113007;28;20027;-59
2021/12/06 11:18:59;;;;;;;22.42;5.85;;;19.80;36.80;;;;;;5093472;28;20062;-61
2021/12/06 11:21:33;;;;;;;22.65;5.82;;;20.00;36.70;;;;;;5112040;28;20099;-61
2021/12/06 11:24:02;;;;;;;18.60;5.68;;;20.00;36.30;;;;;;5094000;28;20106;-61
2021/12/06 11:26:28;;;;;;;25.70;5.72;;;20.00;36.30;;;;;;5111976;28;20019;-61
2021/12/06 11:28:53;;;;;;;22.90;5.47;;;20.00;36.20;;;;;;5093798;28;20369;-62
2021/12/06 11:31:19;;;;;;;23.30;5.50;;;20.10;36.10;;;;;;5112015;28;20016;-61
2021/12/06 11:33:45;;;;;;;23.35;5.50;;;20.20;36.00;;;;;;5111795;28;20036;-62
2021/12/06 11:36:22;;;;;;;19.88;5.45;;;20.30;36.00;;;;;;5076607;28;20016;-61
2021/12/06 11:39:06;;;;;;;18.17;5.05;;;20.40;36.00;;;;;;5112202;28;20022;-61
2021/12/06 11:41:32;;;;;;;17.42;4.90;;;20.40;35.90;;;;;;5111923;28;20041;-62
2021/12/06 11:43:59;;;;;;;13.40;4.45;;;20.50;35.80;;;;;;5093199;28;20014;-61
2021/12/06 11:46:30;;;;;;;18.30;6.15;;;20.60;35.90;;;;;;5076719;28;20004;-61
2021/12/06 11:48:56;;;;;;;14.07;6.05;;;20.60;35.50;;;;;;5112531;28;20007;-61
2021/12/06 11:51:23;;;;;;;13.27;6.07;;;20.50;35.60;;;;;;5096535;28;20058;-60
2021/12/06 11:53:51;;;;;;;15.20;6.28;;;20.30;36.40;;;;;;5115298;28;20028;-60
2021/12/06 11:56:31;;;;;;;11.27;6.00;;;20.10;36.70;;;;;;5115495;28;20012;-60
2021/12/06 11:59:04;;;;;;;16.40;7.38;;;20.00;37.10;;;;;;5099102;28;20011;-60
2021/12/06 12:01:34;;;;;;;15.00;5.90;;;19.70;37.20;;;;;;5097469;28;20012;-60
2021/12/06 12:04:21;;;;;;;11.07;6.30;;;19.70;37.20;;;;;;5097109;28;20053;-59
2021/12/06 12:06:48;;;;;;;9.65;5.88;;;19.60;37.40;;;;;;5115064;28;20023;-59
2021/12/06 12:09:14;;;;;;;9.52;6.63;;;19.70;37.40;;;;;;5114776;28;20016;-60
2021/12/06 12:12:09;;;;;;;8.05;6.05;;;19.60;37.30;;;;;;5114538;28;20028;-60
2021/12/06 12:14:44;;;;;;;7.18;5.82;;;19.70;37.20;;;;;;5096387;28;20094;-61
2021/12/06 12:17:35;;;;;;;8.68;5.65;;;19.70;36.90;;;;;;5096031;28;20415;-60
2021/12/06 12:20:10;;;;;;;7.97;4.72;;;19.60;36.60;;;;;;5096183;28;20050;-61
2021/12/06 12:22:38;;;;;;;9.05;5.00;;;19.60;36.90;;;;;;5114723;28;20117;-61
2021/12/06 12:25:09;;;;;;;6.22;4.80;;;19.60;36.80;;;;;;5096562;28;20019;-64
2021/12/06 12:27:55;;;;;;;7.10;4.68;;;19.60;36.60;;;;;;5114477;28;20012;-61
2021/12/06 12:30:21;;;;;;;7.32;4.43;;;19.50;36.50;;;;;;5114656;28;20020;-61
2021/12/06 12:32:46;;;;;;;5.65;4.25;;;19.50;36.20;;;;;;5114433;28;20023;-61
2021/12/06 12:35:14;;;;;;;5.22;4.60;;;19.60;36.30;;;;;;5114674;28;20381;-62
2021/12/06 12:37:47;;;;;;;8.65;4.70;;;19.50;36.20;;;;;;5096178;28;20470;-60
2021/12/06 12:40:19;;;;;;;6.43;4.85;;;19.50;36.50;;;;;;5079447;28;20015;-60
2021/12/06 12:43:18;;;;;;;6.85;4.30;;;19.70;36.30;;;;;;5114307;28;20031;-59
2021/12/06 12:45:52;;;;;;;14.77;4.72;;;19.70;36.30;;;;;;4995497;28;20118;-60
2021/12/06 12:48:25;;;;;;;11.95;4.63;;;19.70;36.70;;;;;;4995398;28;20034;-60
2021/12/06 12:51:13;;;;;;;5.88;4.10;;;19.70;36.50;;;;;;5011915;28;20148;-60
2021/12/06 12:54:14;;;;;;;7.03;4.53;;;19.70;36.50;;;;;;5011738;28;20032;-60
2021/12/06 12:57:05;;;;;;;7.50;4.60;;;19.60;36.30;;;;;;4995403;28;20030;-59
2021/12/06 12:59:45;;;;;;;8.17;4.70;;;19.60;36.60;;;;;;5011689;28;20037;-61
2021/12/06 13:02:21;;;;;;;10.60;4.07;;;19.50;36.60;;;;;;5010499;28;20064;-59
2021/12/06 13:04:58;;;;;;;6.53;3.88;;;19.50;36.50;;;;;;5011354;28;20032;-59
2021/12/06 13:07:41;;;;;;;6.55;4.13;;;19.60;36.40;;;;;;5011183;28;20049;-58
2021/12/06 13:10:29;;;;;;;7.68;3.95;;;19.60;36.30;;;;;;5011156;28;20034;-59